Huillapima, Argentina
Current Conditions -  °F | °C
As of 6:00 PM on Wednesday 26 Nov 2014 (Local Time) from SANT Reporting Station
Scattered Clouds Scattered Clouds  
Wind Chill: 75°   Ceiling: Unl
Heat Index: 75°   Visibility: 6mi
Dew Point: 64°   Wind: 2mph
Humidity: 69%   Direction: 180°S
Pressure: 29.94"   Gusts: NA
Location:  28.73°S, 65.98°W
Report Text: SANT 262100Z 18002KT 9999 SCT025 SCT03524/18 Q1014
Loading
Personal Weather Stations






























Interactive Weather Map New forecast layout! Learn more

10-Day Weather Forecast

Advertisements
Track Severe Weather on mobile